Time;durP1;ratioP1;P1;durP2;ratioP2;P2;SDS_P1;SDS_P2;PMS_P1;PMS_P2;Temp;Humidity;BMP_temperature;BMP_pressure;BME280_temperature;BME280_humidity;BME280_pressure;Samples;Min_cycle;Max_cycle;Signal;HPM_P1;HPM_P2
2021/09/16 00:00:45;;;;;;;2.60;1.20;;;18.60;99.90;;;;;;4881450;29;20055;-78
2021/09/16 00:03:12;;;;;;;2.42;1.10;;;18.50;99.90;;;;;;4881419;29;20060;-78
2021/09/16 00:05:39;;;;;;;4.00;1.10;;;18.50;99.90;;;;;;4881291;29;20056;-78
2021/09/16 00:08:07;;;;;;;3.35;1.02;;;18.50;99.90;;;;;;4881225;29;20049;-78
2021/09/16 00:10:34;;;;;;;3.47;1.33;;;18.50;99.90;;;;;;4881226;29;20053;-78
2021/09/16 00:13:01;;;;;;;3.72;0.93;;;18.50;99.90;;;;;;4880941;29;20064;-78
2021/09/16 00:15:29;;;;;;;4.88;1.02;;;18.50;99.90;;;;;;4881045;29;20492;-78
2021/09/16 00:17:56;;;;;;;4.60;1.48;;;18.50;99.90;;;;;;4881306;29;20049;-78
2021/09/16 00:20:23;;;;;;;3.72;1.15;;;18.50;99.90;;;;;;4881033;29;20388;-78
2021/09/16 00:22:50;;;;;;;5.60;1.40;;;18.50;99.90;;;;;;4879992;29;20049;-77
2021/09/16 00:25:18;;;;;;;3.30;1.17;;;18.40;99.90;;;;;;4880847;29;20049;-77
2021/09/16 00:27:45;;;;;;;2.20;1.00;;;18.40;99.90;;;;;;4880701;29;20505;-78
2021/09/16 00:30:13;;;;;;;3.35;1.10;;;18.40;99.90;;;;;;4880685;29;20501;-78
2021/09/16 00:32:40;;;;;;;2.83;1.23;;;18.40;99.90;;;;;;4880877;29;20053;-78
2021/09/16 00:35:09;;;;;;;3.40;1.20;;;18.40;99.90;;;;;;4880843;29;20049;-77
2021/09/16 00:37:36;;;;;;;2.80;1.13;;;18.50;99.90;;;;;;4880712;29;20075;-78
2021/09/16 00:40:05;;;;;;;3.65;1.50;;;18.50;99.90;;;;;;4880462;29;20057;-78
2021/09/16 00:42:34;;;;;;;3.08;1.30;;;18.50;99.90;;;;;;4881042;29;20059;-77
2021/09/16 00:45:01;;;;;;;2.95;1.10;;;18.50;99.90;;;;;;4880713;29;20144;-78
2021/09/16 00:47:28;;;;;;;2.97;1.20;;;18.40;99.90;;;;;;4880688;29;20055;-78
2021/09/16 00:49:55;;;;;;;4.30;1.30;;;18.50;99.90;;;;;;4880415;29;20057;-77
2021/09/16 00:52:23;;;;;;;5.43;1.20;;;18.40;99.90;;;;;;4880415;29;20053;-78
2021/09/16 00:54:54;;;;;;;2.78;1.20;;;18.40;99.90;;;;;;4880343;29;20055;-78
2021/09/16 00:57:23;;;;;;;3.80;1.30;;;18.40;99.90;;;;;;4880473;29;20067;-78
2021/09/16 00:59:54;;;;;;;2.30;1.20;;;18.40;99.90;;;;;;4880329;29;20056;-78
2021/09/16 01:02:21;;;;;;;2.92;1.10;;;18.30;99.90;;;;;;4880234;29;20065;-78
2021/09/16 01:04:48;;;;;;;3.42;1.30;;;18.30;99.90;;;;;;4880091;29;20139;-78
2021/09/16 01:07:15;;;;;;;3.58;1.30;;;18.30;99.90;;;;;;4880114;29;20053;-78
2021/09/16 01:09:44;;;;;;;5.53;1.85;;;18.30;99.90;;;;;;4880272;29;20053;-78
2021/09/16 01:12:12;;;;;;;4.05;1.50;;;18.30;99.90;;;;;;4880261;29;20150;-78
2021/09/16 01:14:39;;;;;;;2.97;1.20;;;18.20;99.90;;;;;;4879985;29;20051;-78
2021/09/16 01:17:07;;;;;;;3.03;1.50;;;18.20;99.90;;;;;;4879971;29;20049;-78
2021/09/16 01:19:34;;;;;;;3.83;1.20;;;18.20;99.90;;;;;;4879783;29;20057;-78
2021/09/16 01:22:01;;;;;;;4.22;1.20;;;18.20;99.90;;;;;;4879827;29;20049;-78
2021/09/16 01:24:30;;;;;;;5.78;1.25;;;18.30;99.90;;;;;;4879958;29;20055;-78
2021/09/16 01:26:57;;;;;;;3.25;1.33;;;18.30;99.90;;;;;;4879922;29;20049;-78
2021/09/16 01:29:25;;;;;;;3.58;1.20;;;18.30;99.90;;;;;;4879920;29;20407;-77
2021/09/16 01:31:52;;;;;;;2.35;1.15;;;18.40;99.90;;;;;;4879733;29;20049;-77
2021/09/16 01:34:20;;;;;;;4.65;1.40;;;18.40;99.90;;;;;;4879486;29;20420;-78
2021/09/16 01:36:49;;;;;;;3.38;1.17;;;18.40;99.90;;;;;;4879797;29;20051;-78
2021/09/16 01:39:18;;;;;;;3.35;1.33;;;18.40;99.90;;;;;;4879716;29;20053;-78
2021/09/16 01:41:47;;;;;;;3.67;1.27;;;18.40;99.90;;;;;;4879561;29;20053;-78
2021/09/16 01:44:15;;;;;;;3.47;1.23;;;18.40;99.90;;;;;;4879561;29;20049;-78
2021/09/16 01:46:43;;;;;;;3.67;1.23;;;18.30;99.90;;;;;;4879458;29;20422;-78
2021/09/16 01:49:11;;;;;;;6.32;1.42;;;18.30;99.90;;;;;;4879219;29;20518;-77
2021/09/16 01:51:38;;;;;;;3.30;1.25;;;18.20;99.90;;;;;;4879557;29;20060;-78
2021/09/16 01:54:06;;;;;;;4.05;1.30;;;18.20;99.90;;;;;;4879530;29;20063;-78
2021/09/16 01:56:34;;;;;;;2.25;1.02;;;18.30;99.90;;;;;;4879313;29;20583;-78
2021/09/16 01:59:02;;;;;;;3.40;1.15;;;18.30;99.90;;;;;;4879271;29;20075;-78
2021/09/16 02:01:29;;;;;;;3.42;1.10;;;18.20;99.90;;;;;;4879582;29;20063;-78
2021/09/16 02:03:56;;;;;;;3.85;1.30;;;18.20;99.90;;;;;;4879258;29;20484;-78
2021/09/16 02:06:24;;;;;;;2.92;1.20;;;18.20;99.90;;;;;;4879460;29;20056;-77
2021/09/16 02:08:51;;;;;;;3.97;1.20;;;18.30;99.90;;;;;;4879339;29;20484;-77
2021/09/16 02:11:18;;;;;;;2.53;1.00;;;18.30;99.90;;;;;;4879362;29;20059;-78
2021/09/16 02:13:45;;;;;;;2.53;1.15;;;18.30;99.90;;;;;;4879058;29;20049;-77
2021/09/16 02:16:14;;;;;;;2.72;1.10;;;18.30;99.90;;;;;;4879338;29;20055;-78
2021/09/16 02:18:41;;;;;;;2.90;1.30;;;18.30;99.90;;;;;;4879165;29;20509;-78
2021/09/16 02:21:08;;;;;;;2.50;1.10;;;18.30;99.90;;;;;;4879039;29;20064;-78
2021/09/16 02:23:35;;;;;;;3.60;1.15;;;18.40;99.90;;;;;;4879081;29;20049;-77
2021/09/16 02:26:02;;;;;;;3.10;1.05;;;18.40;99.90;;;;;;4879132;29;20061;-78
2021/09/16 02:28:29;;;;;;;2.67;1.00;;;18.40;99.90;;;;;;4879315;29;20060;-78
2021/09/16 02:30:56;;;;;;;2.33;0.90;;;18.40;99.90;;;;;;4879293;29;20051;-78
2021/09/16 02:33:32;;;;;;;3.72;1.10;;;18.40;99.90;;;;;;4879231;29;20045;-78
2021/09/16 02:35:59;;;;;;;2.78;1.00;;;18.40;99.90;;;;;;4879243;29;20053;-78
2021/09/16 02:38:27;;;;;;;2.05;0.90;;;18.40;99.90;;;;;;4879161;29;20045;-78
2021/09/16 02:40:55;;;;;;;2.65;0.90;;;18.40;99.90;;;;;;4878877;29;20075;-78
2021/09/16 02:43:22;;;;;;;4.40;1.00;;;18.40;99.90;;;;;;4878930;29;20056;-77
2021/09/16 02:45:49;;;;;;;2.90;1.10;;;18.40;99.90;;;;;;4881479;29;20056;-78
2021/09/16 02:48:16;;;;;;;1.90;0.80;;;18.40;99.90;;;;;;4882657;29;20045;-78
2021/09/16 02:50:45;;;;;;;2.67;1.13;;;18.40;99.90;;;;;;4882411;29;20048;-77
2021/09/16 02:53:12;;;;;;;3.05;1.10;;;18.40;99.90;;;;;;4882452;29;20064;-78
2021/09/16 02:55:39;;;;;;;3.10;1.15;;;18.30;99.90;;;;;;4882429;29;20510;-78
2021/09/16 02:58:06;;;;;;;2.53;1.10;;;18.30;99.90;;;;;;4882540;29;20045;-78
2021/09/16 03:00:33;;;;;;;3.38;1.00;;;18.30;99.90;;;;;;4882287;29;20063;-78
2021/09/16 03:03:00;;;;;;;3.10;1.10;;;18.30;99.90;;;;;;4882544;29;20048;-78
2021/09/16 03:05:27;;;;;;;3.15;1.20;;;18.30;99.90;;;;;;4882337;29;20049;-78
2021/09/16 03:07:56;;;;;;;2.30;1.00;;;18.30;99.90;;;;;;4882129;29;20060;-78
2021/09/16 03:10:23;;;;;;;4.28;1.00;;;18.30;99.90;;;;;;4882408;29;20044;-78
2021/09/16 03:12:50;;;;;;;2.47;1.08;;;18.30;99.90;;;;;;4882100;29;20063;-77
2021/09/16 03:15:17;;;;;;;2.22;1.00;;;18.30;99.90;;;;;;4882226;29;20055;-78
2021/09/16 03:17:44;;;;;;;2.78;1.05;;;18.30;99.90;;;;;;4882165;29;20052;-78
2021/09/16 03:20:12;;;;;;;3.08;1.20;;;18.30;99.90;;;;;;4881941;29;20061;-78
2021/09/16 03:22:39;;;;;;;2.45;1.10;;;18.40;99.90;;;;;;4881922;29;20049;-78
2021/09/16 03:25:10;;;;;;;2.22;1.00;;;18.30;99.90;;;;;;4882092;29;20049;-78
2021/09/16 03:27:38;;;;;;;3.08;1.00;;;18.30;99.90;;;;;;4881916;29;20049;-78
2021/09/16 03:30:07;;;;;;;3.05;1.00;;;18.30;99.90;;;;;;4882020;29;20484;-78
2021/09/16 03:32:35;;;;;;;2.33;1.10;;;18.30;99.90;;;;;;4881914;29;20426;-78
2021/09/16 03:35:02;;;;;;;2.75;1.30;;;18.30;99.90;;;;;;4881803;29;20055;-78
2021/09/16 03:37:29;;;;;;;3.08;1.30;;;18.30;99.90;;;;;;4881929;29;20599;-78
2021/09/16 03:39:56;;;;;;;2.75;0.98;;;18.30;99.90;;;;;;4881728;29;20057;-78
2021/09/16 03:42:25;;;;;;;1.88;0.90;;;18.30;99.90;;;;;;4881680;29;20052;-78
2021/09/16 03:44:52;;;;;;;2.97;1.00;;;18.30;99.90;;;;;;4881624;29;20055;-78
2021/09/16 03:47:19;;;;;;;2.47;0.98;;;18.30;99.90;;;;;;4881587;29;20051;-78
2021/09/16 03:49:46;;;;;;;4.45;1.20;;;18.30;99.90;;;;;;4881301;29;20053;-78
2021/09/16 03:52:13;;;;;;;3.83;1.00;;;18.30;99.90;;;;;;4881625;29;20075;-78
2021/09/16 03:54:40;;;;;;;2.63;1.05;;;18.20;99.90;;;;;;4881662;29;20045;-78
2021/09/16 03:57:07;;;;;;;2.70;1.10;;;18.20;99.90;;;;;;4881500;29;20132;-77
2021/09/16 03:59:36;;;;;;;5.30;1.30;;;18.20;99.90;;;;;;4881396;29;20152;-78
2021/09/16 04:02:04;;;;;;;3.72;1.25;;;18.20;99.90;;;;;;4881258;29;20085;-78
2021/09/16 04:04:31;;;;;;;4.20;1.35;;;18.20;99.90;;;;;;4881545;29;20085;-78
2021/09/16 04:06:58;;;;;;;4.75;1.50;;;18.20;99.90;;;;;;4881431;29;20165;-78
2021/09/16 04:09:25;;;;;;;6.30;1.77;;;18.10;99.90;;;;;;4881246;29;20488;-78
2021/09/16 04:11:52;;;;;;;4.05;1.42;;;18.10;99.90;;;;;;4881294;29;20574;-78
2021/09/16 04:14:22;;;;;;;3.03;1.20;;;18.00;99.90;;;;;;4881090;29;20055;-78
2021/09/16 04:16:52;;;;;;;3.95;1.13;;;18.00;99.90;;;;;;4881326;29;20057;-78
2021/09/16 04:19:19;;;;;;;3.28;1.50;;;17.90;99.90;;;;;;4881167;29;20080;-79
2021/09/16 04:21:46;;;;;;;3.28;1.35;;;17.90;99.90;;;;;;4880894;29;20064;-78
2021/09/16 04:24:16;;;;;;;2.72;1.15;;;17.90;99.90;;;;;;4881126;29;20053;-78
2021/09/16 04:26:44;;;;;;;2.53;1.13;;;17.90;99.90;;;;;;4880823;29;20495;-78
2021/09/16 04:29:11;;;;;;;2.97;1.00;;;17.90;99.90;;;;;;4880763;29;20057;-78
2021/09/16 04:31:38;;;;;;;2.97;1.20;;;17.90;99.90;;;;;;4881025;29;20049;-78
2021/09/16 04:34:07;;;;;;;3.85;1.30;;;18.00;99.90;;;;;;4880988;29;20049;-78
2021/09/16 04:36:34;;;;;;;3.40;1.30;;;18.00;99.90;;;;;;4880779;29;20065;-78
2021/09/16 04:39:01;;;;;;;4.68;1.30;;;18.10;99.90;;;;;;4880682;29;20045;-78
2021/09/16 04:41:29;;;;;;;2.83;1.15;;;18.10;99.90;;;;;;4880471;29;20105;-78
2021/09/16 04:43:56;;;;;;;2.97;1.45;;;18.10;99.90;;;;;;4880577;29;20057;-78
2021/09/16 04:46:23;;;;;;;3.78;1.40;;;18.10;99.90;;;;;;4880438;29;20559;-78
2021/09/16 04:48:50;;;;;;;3.75;1.30;;;18.10;99.90;;;;;;4879940;29;20077;-78
2021/09/16 04:51:19;;;;;;;3.70;1.52;;;18.10;99.90;;;;;;4880335;29;20139;-78
2021/09/16 04:53:46;;;;;;;2.65;1.10;;;18.10;99.90;;;;;;4880196;29;20415;-78
2021/09/16 04:56:13;;;;;;;3.97;1.30;;;18.10;99.90;;;;;;4880298;29;20135;-77
2021/09/16 04:58:40;;;;;;;2.63;1.10;;;18.10;99.90;;;;;;4880548;29;20049;-79
2021/09/16 05:01:07;;;;;;;3.75;1.38;;;18.10;99.90;;;;;;4880331;29;20059;-79
2021/09/16 05:03:34;;;;;;;3.60;1.30;;;18.10;99.90;;;;;;4880387;29;20131;-80
2021/09/16 05:06:01;;;;;;;5.05;1.10;;;18.10;99.90;;;;;;4880225;29;20506;-79
2021/09/16 05:08:30;;;;;;;4.45;1.42;;;18.10;99.90;;;;;;4879659;29;20049;-78
2021/09/16 05:10:57;;;;;;;3.00;0.90;;;18.10;99.90;;;;;;4880030;29;20045;-78
2021/09/16 05:13:24;;;;;;;3.47;1.23;;;18.10;99.90;;;;;;4880219;29;20400;-78
2021/09/16 05:15:51;;;;;;;3.30;1.10;;;18.10;99.90;;;;;;4879975;29;20051;-78
2021/09/16 05:18:18;;;;;;;3.45;1.13;;;18.10;99.90;;;;;;4879972;29;20055;-78
2021/09/16 05:20:46;;;;;;;4.82;1.20;;;18.10;99.90;;;;;;4879802;29;20053;-78
2021/09/16 05:23:13;;;;;;;2.90;1.20;;;18.10;99.90;;;;;;4879818;29;20059;-78
2021/09/16 05:25:41;;;;;;;3.33;1.33;;;18.10;99.90;;;;;;4880058;29;20128;-78
2021/09/16 05:28:08;;;;;;;2.70;1.20;;;18.10;99.90;;;;;;4879895;29;20052;-78
2021/09/16 05:30:35;;;;;;;3.40;1.20;;;18.10;99.90;;;;;;4879778;29;20082;-78
2021/09/16 05:33:07;;;;;;;4.68;1.30;;;18.10;99.90;;;;;;4879743;29;20049;-79
2021/09/16 05:35:34;;;;;;;3.83;1.23;;;18.10;99.90;;;;;;4879656;29;20088;-78
2021/09/16 05:38:01;;;;;;;2.55;1.10;;;18.10;99.90;;;;;;4879500;29;20049;-78
2021/09/16 05:40:28;;;;;;;4.18;1.38;;;18.10;99.90;;;;;;4879667;29;20048;-78
2021/09/16 05:42:57;;;;;;;3.42;1.23;;;18.10;99.90;;;;;;4879730;29;20083;-78
2021/09/16 05:45:24;;;;;;;5.70;1.58;;;18.20;99.90;;;;;;4879383;29;20049;-78
2021/09/16 05:47:51;;;;;;;3.65;1.30;;;18.20;99.90;;;;;;4879458;29;20059;-78
2021/09/16 05:50:18;;;;;;;3.70;1.50;;;18.20;99.90;;;;;;4879195;29;20053;-79
2021/09/16 05:52:45;;;;;;;5.03;1.60;;;18.20;99.90;;;;;;4879313;29;20055;-78
2021/09/16 05:55:13;;;;;;;3.67;1.30;;;18.20;99.90;;;;;;4879534;29;20049;-78
2021/09/16 05:57:40;;;;;;;3.45;1.40;;;18.20;99.90;;;;;;4879607;29;20057;-78
2021/09/16 06:00:10;;;;;;;2.90;1.38;;;18.20;99.90;;;;;;4879297;29;20420;-78
2021/09/16 06:02:38;;;;;;;5.18;1.55;;;18.20;99.90;;;;;;4879289;29;20057;-78
2021/09/16 06:05:06;;;;;;;4.35;1.50;;;18.30;99.90;;;;;;4879197;29;20063;-78
2021/09/16 06:07:34;;;;;;;2.72;1.20;;;18.30;99.90;;;;;;4879456;29;20182;-78
2021/09/16 06:10:02;;;;;;;5.03;1.88;;;18.30;99.90;;;;;;4879322;29;20049;-78
2021/09/16 06:12:30;;;;;;;3.20;1.40;;;18.30;99.90;;;;;;4879217;29;20112;-78
2021/09/16 06:14:58;;;;;;;3.20;1.30;;;18.40;99.90;;;;;;4879194;29;20559;-78
2021/09/16 06:17:26;;;;;;;3.47;1.50;;;18.40;99.90;;;;;;4879142;29;20049;-78
2021/09/16 06:19:53;;;;;;;3.17;1.52;;;18.40;99.90;;;;;;4880292;29;20135;-79
2021/09/16 06:22:21;;;;;;;3.67;1.40;;;18.50;99.90;;;;;;4883133;29;20067;-79
2021/09/16 06:24:48;;;;;;;3.55;1.40;;;18.50;99.90;;;;;;4883146;29;20055;-79
2021/09/16 06:27:15;;;;;;;4.40;1.40;;;18.50;99.90;;;;;;4882945;29;20084;-79
2021/09/16 06:29:42;;;;;;;3.80;1.48;;;18.50;99.90;;;;;;4882970;29;20049;-79
2021/09/16 06:32:09;;;;;;;3.22;1.30;;;18.50;99.90;;;;;;4882794;29;20124;-79
2021/09/16 06:34:38;;;;;;;3.88;1.60;;;18.60;99.90;;;;;;4882966;29;20051;-79
2021/09/16 06:37:05;;;;;;;8.15;4.32;;;18.70;99.90;;;;;;4883181;29;20140;-78
2021/09/16 06:39:32;;;;;;;12.50;5.68;;;18.60;99.90;;;;;;4882739;29;20053;-78
2021/09/16 06:42:00;;;;;;;8.52;4.30;;;18.70;99.90;;;;;;4882555;29;20496;-78
2021/09/16 06:44:27;;;;;;;6.47;3.00;;;18.70;99.90;;;;;;4882602;29;20055;-78
2021/09/16 06:46:54;;;;;;;5.32;2.30;;;18.70;99.90;;;;;;4882502;29;20463;-78
2021/09/16 06:49:21;;;;;;;3.55;1.67;;;18.70;99.90;;;;;;4882471;29;20151;-78
2021/09/16 06:51:50;;;;;;;4.50;1.60;;;18.80;99.90;;;;;;4882557;29;20135;-78
2021/09/16 06:54:17;;;;;;;4.65;1.70;;;18.80;99.90;;;;;;4882529;29;20135;-78
2021/09/16 06:56:44;;;;;;;6.15;1.50;;;18.80;99.90;;;;;;4882375;29;20057;-78
2021/09/16 06:59:11;;;;;;;4.22;1.40;;;18.80;99.90;;;;;;4882389;29;20053;-78
2021/09/16 07:01:38;;;;;;;3.88;1.40;;;18.90;99.90;;;;;;4882492;29;20063;-78
2021/09/16 07:04:05;;;;;;;3.47;1.27;;;18.90;99.90;;;;;;4882205;29;20053;-78
2021/09/16 07:06:32;;;;;;;3.80;1.30;;;19.00;99.90;;;;;;4882414;29;20059;-78
2021/09/16 07:09:01;;;;;;;4.07;1.40;;;19.10;99.90;;;;;;4882418;29;20147;-78
2021/09/16 07:11:28;;;;;;;3.50;1.40;;;19.10;99.90;;;;;;4882251;29;20056;-78
2021/09/16 07:13:55;;;;;;;3.20;1.38;;;19.20;99.90;;;;;;4882288;29;20052;-78
2021/09/16 07:16:22;;;;;;;3.20;1.38;;;19.30;99.90;;;;;;4882383;29;20048;-78
2021/09/16 07:18:49;;;;;;;2.67;1.35;;;19.30;99.90;;;;;;4882386;29;20128;-78
2021/09/16 07:21:16;;;;;;;3.15;1.50;;;19.40;99.90;;;;;;4882032;29;20056;-79
2021/09/16 07:23:43;;;;;;;3.40;1.60;;;19.50;99.90;;;;;;4882047;29;20406;-79
2021/09/16 07:26:11;;;;;;;3.25;1.50;;;19.60;99.90;;;;;;4881851;29;20132;-79
2021/09/16 07:28:39;;;;;;;3.47;1.20;;;19.60;99.90;;;;;;4882112;29;20085;-79
2021/09/16 07:31:06;;;;;;;3.83;1.50;;;19.70;99.90;;;;;;4881465;29;20562;-79
2021/09/16 07:33:34;;;;;;;2.85;1.35;;;19.80;99.90;;;;;;4882037;29;20083;-79
2021/09/16 07:36:01;;;;;;;4.07;1.50;;;19.90;99.90;;;;;;4881742;29;20474;-79
2021/09/16 07:38:28;;;;;;;5.50;1.50;;;19.90;99.90;;;;;;4881730;29;20140;-79
2021/09/16 07:40:55;;;;;;;2.60;1.30;;;19.90;99.90;;;;;;4881528;29;20081;-80
2021/09/16 07:43:24;;;;;;;5.40;1.70;;;19.90;99.90;;;;;;4881622;29;20571;-79
2021/09/16 07:45:51;;;;;;;4.13;1.70;;;19.90;99.90;;;;;;4881698;29;20049;-79
2021/09/16 07:48:19;;;;;;;5.35;1.90;;;19.90;99.90;;;;;;4881537;29;20137;-79
2021/09/16 07:50:47;;;;;;;4.43;2.30;;;19.90;99.90;;;;;;4881354;29;20065;-79
2021/09/16 07:53:14;;;;;;;5.55;2.05;;;19.80;99.90;;;;;;4881424;29;20690;-79
2021/09/16 07:55:41;;;;;;;5.75;2.15;;;19.80;99.90;;;;;;4881638;29;20045;-79
2021/09/16 07:58:08;;;;;;;5.00;1.73;;;19.70;99.90;;;;;;4881514;29;20063;-79
2021/09/16 08:00:37;;;;;;;5.03;1.70;;;19.70;99.90;;;;;;4881301;29;20049;-79
2021/09/16 08:03:04;;;;;;;5.80;1.90;;;19.70;99.90;;;;;;4881712;29;20137;-79
2021/09/16 08:05:31;;;;;;;7.55;2.17;;;19.70;99.90;;;;;;4881241;29;20109;-79
2021/09/16 08:07:58;;;;;;;4.85;2.03;;;19.70;99.90;;;;;;4881161;29;20091;-79
2021/09/16 08:10:25;;;;;;;5.40;2.05;;;19.70;99.90;;;;;;4881415;29;20135;-79
2021/09/16 08:12:53;;;;;;;4.30;1.92;;;19.70;99.90;;;;;;4881234;29;20059;-79
2021/09/16 08:15:20;;;;;;;5.35;1.85;;;19.70;99.90;;;;;;4881057;29;20049;-79
2021/09/16 08:17:48;;;;;;;4.35;1.73;;;19.80;99.90;;;;;;4881150;29;20045;-79
2021/09/16 08:20:16;;;;;;;3.70;1.90;;;19.90;99.90;;;;;;4880943;29;20132;-79
2021/09/16 08:22:45;;;;;;;4.15;1.98;;;20.00;99.90;;;;;;4881224;29;20095;-79
2021/09/16 08:25:14;;;;;;;5.45;2.05;;;20.00;99.90;;;;;;4880851;29;20045;-79
2021/09/16 08:27:42;;;;;;;4.28;2.20;;;20.00;99.90;;;;;;4880857;29;20055;-79
2021/09/16 08:30:12;;;;;;;4.18;1.90;;;20.10;99.90;;;;;;4880828;29;20056;-79
2021/09/16 08:32:40;;;;;;;4.53;1.85;;;20.10;99.90;;;;;;4880760;29;20059;-79
2021/09/16 08:35:11;;;;;;;3.97;1.83;;;20.00;99.90;;;;;;4879484;29;20127;-79
2021/09/16 08:37:38;;;;;;;4.85;2.08;;;20.00;99.90;;;;;;4879666;29;20087;-87
2021/09/16 08:40:07;;;;;;;5.60;1.90;;;20.00;99.90;;;;;;4880328;29;20124;-85
2021/09/16 08:42:41;;;;;;;3.90;1.92;;;19.90;99.90;;;;;;4861333;29;20079;-87
2021/09/16 08:45:14;;;;;;;3.43;1.80;;;19.90;99.90;;;;;;4862085;29;20101;-87
2021/09/16 08:47:41;;;;;;;4.07;2.03;;;19.90;99.90;;;;;;4877815;29;20059;-86
2021/09/16 08:50:11;;;;;;;4.97;1.90;;;19.90;99.90;;;;;;4880388;29;20060;-81
2021/09/16 08:52:40;;;;;;;5.40;2.08;;;19.90;99.90;;;;;;4880583;29;20055;-86
2021/09/16 08:55:11;;;;;;;5.47;1.90;;;19.80;99.90;;;;;;4878500;29;20587;-87
2021/09/16 08:57:40;;;;;;;4.13;1.80;;;19.80;99.90;;;;;;4879842;29;20127;-87
2021/09/16 09:00:11;;;;;;;5.25;2.17;;;19.70;99.90;;;;;;4879783;29;20571;-85
2021/09/16 09:02:39;;;;;;;4.03;2.10;;;19.70;99.90;;;;;;4879771;29;20552;-85
2021/09/16 09:05:10;;;;;;;3.08;1.50;;;19.70;99.90;;;;;;4879790;29;20052;-83
2021/09/16 09:07:38;;;;;;;2.00;0.90;;;19.70;99.90;;;;;;4879560;29;20483;-83
2021/09/16 09:10:06;;;;;;;2.17;0.70;;;19.60;99.90;;;;;;4880009;29;20053;-85
2021/09/16 09:12:35;;;;;;;1.60;0.70;;;19.50;99.90;;;;;;4879726;29;20376;-84
2021/09/16 09:15:04;;;;;;;1.67;0.70;;;19.40;99.90;;;;;;4879456;29;20053;-84
2021/09/16 09:17:33;;;;;;;1.02;0.50;;;19.30;99.90;;;;;;4879706;29;20055;-85
2021/09/16 09:20:08;;;;;;;0.88;0.45;;;19.30;99.90;;;;;;4879900;29;20131;-85
2021/09/16 09:22:41;;;;;;;1.40;0.50;;;19.30;99.90;;;;;;4879447;29;20049;-84
2021/09/16 09:25:11;;;;;;;0.98;0.50;;;19.30;99.90;;;;;;4879197;29;20048;-82
2021/09/16 09:27:41;;;;;;;2.15;0.60;;;19.20;99.90;;;;;;4881705;29;20052;-83
2021/09/16 09:30:15;;;;;;;1.88;0.50;;;19.20;99.90;;;;;;4886070;29;20570;-83
2021/09/16 09:32:56;;;;;;;2.47;0.70;;;19.10;99.90;;;;;;4881779;29;20040;-82
2021/09/16 09:35:35;;;;;;;1.77;0.70;;;19.10;99.90;;;;;;4888051;29;20146;-82
2021/09/16 09:38:13;;;;;;;1.88;0.68;;;19.10;99.90;;;;;;4886252;29;20124;-82
2021/09/16 09:40:42;;;;;;;1.10;0.43;;;19.00;99.90;;;;;;4883622;29;20136;-85
2021/09/16 09:43:23;;;;;;;1.42;0.50;;;19.00;99.90;;;;;;4878967;29;20500;-81
2021/09/16 09:46:05;;;;;;;2.78;0.60;;;19.00;99.90;;;;;;4878977;29;20486;-83
2021/09/16 09:48:36;;;;;;;1.17;0.50;;;19.00;99.90;;;;;;4886629;29;20456;-83
2021/09/16 09:51:05;;;;;;;3.25;0.65;;;19.00;99.90;;;;;;4886691;29;20053;-80
2021/09/16 09:53:38;;;;;;;1.88;0.70;;;18.90;99.90;;;;;;4887465;29;20044;-83
2021/09/16 09:56:14;;;;;;;1.45;0.43;;;19.00;99.90;;;;;;4887499;29;20046;-82
2021/09/16 09:58:41;;;;;;;1.45;0.50;;;18.90;99.90;;;;;;4889881;29;20056;-81
2021/09/16 10:01:31;;;;;;;1.98;0.70;;;18.90;99.90;;;;;;4887583;29;20045;-82
2021/09/16 10:03:58;;;;;;;1.60;0.70;;;18.80;99.90;;;;;;4887482;29;20040;-81
2021/09/16 10:06:35;;;;;;;2.45;0.70;;;18.80;99.90;;;;;;4887383;29;20053;-81
2021/09/16 10:09:13;;;;;;;2.88;1.20;;;18.80;99.90;;;;;;4885519;29;20462;-81
2021/09/16 10:11:42;;;;;;;2.28;1.02;;;18.70;99.90;;;;;;4879968;29;20464;-80
2021/09/16 10:14:10;;;;;;;2.13;1.20;;;18.70;99.90;;;;;;4886011;29;20057;-81
2021/09/16 10:16:37;;;;;;;2.88;1.30;;;18.60;99.90;;;;;;4884972;29;20120;-80
2021/09/16 10:19:05;;;;;;;3.72;1.30;;;18.50;99.90;;;;;;4885289;29;20055;-79
2021/09/16 10:21:32;;;;;;;2.92;1.40;;;18.40;99.90;;;;;;4886632;29;20055;-79
2021/09/16 10:24:01;;;;;;;2.35;1.30;;;18.40;99.90;;;;;;4886673;29;20041;-80
2021/09/16 10:26:38;;;;;;;3.40;1.98;;;18.40;99.90;;;;;;4886459;29;20128;-80
2021/09/16 10:29:28;;;;;;;3.53;2.20;;;18.40;99.90;;;;;;4886275;29;20056;-80
2021/09/16 10:32:37;;;;;;;3.33;2.20;;;18.30;99.90;;;;;;4885029;29;20048;-80
2021/09/16 10:35:21;;;;;;;5.57;2.58;;;18.20;99.90;;;;;;4884429;29;20045;-80
2021/09/16 10:37:50;;;;;;;4.95;2.33;;;18.20;99.90;;;;;;4884899;29;20051;-80
2021/09/16 10:40:28;;;;;;;4.75;3.00;;;18.20;99.90;;;;;;4887402;29;20139;-81
2021/09/16 10:42:59;;;;;;;4.50;2.95;;;18.20;99.90;;;;;;4883598;29;20057;-81
2021/09/16 10:45:39;;;;;;;5.18;3.00;;;18.20;99.90;;;;;;4881148;29;20049;-81
2021/09/16 10:48:29;;;;;;;3.97;2.88;;;18.30;99.90;;;;;;4877668;29;20049;-81
2021/09/16 10:51:04;;;;;;;4.53;2.90;;;18.30;99.90;;;;;;4878017;29;20109;-80
2021/09/16 10:53:40;;;;;;;4.20;2.88;;;18.20;99.90;;;;;;4886497;29;20139;-81
2021/09/16 10:56:35;;;;;;;4.70;2.97;;;18.20;99.90;;;;;;4880730;29;20049;-81
2021/09/16 10:59:03;;;;;;;4.90;3.42;;;18.20;99.90;;;;;;4886710;29;20056;-80
2021/09/16 11:01:59;;;;;;;5.00;2.92;;;18.20;99.90;;;;;;4885192;29;20513;-80
2021/09/16 11:04:27;;;;;;;4.38;2.85;;;18.10;99.90;;;;;;4881885;29;20414;-80
2021/09/16 11:06:54;;;;;;;4.85;2.97;;;18.10;99.90;;;;;;4885663;29;20506;-80
2021/09/16 11:09:29;;;;;;;4.20;2.58;;;18.10;99.90;;;;;;4890248;29;20084;-80
2021/09/16 11:12:03;;;;;;;5.63;2.92;;;18.00;99.90;;;;;;4884168;29;20052;-80
2021/09/16 11:14:35;;;;;;;6.43;4.28;;;18.00;99.90;;;;;;4882231;29;20113;-81
2021/09/16 11:17:06;;;;;;;7.03;4.68;;;18.00;99.90;;;;;;4881807;29;20114;-80
2021/09/16 11:19:44;;;;;;;6.88;4.72;;;17.90;99.90;;;;;;4867416;29;20407;-80
2021/09/16 11:22:11;;;;;;;8.50;5.20;;;17.80;99.90;;;;;;4881732;29;20434;-80
2021/09/16 11:24:41;;;;;;;6.65;4.53;;;17.80;99.90;;;;;;4881842;29;20148;-80
2021/09/16 11:27:11;;;;;;;7.10;5.07;;;17.70;99.90;;;;;;4881856;29;20056;-81
2021/09/16 11:29:48;;;;;;;6.22;4.72;;;17.60;99.90;;;;;;4881530;29;20101;-80
2021/09/16 11:32:16;;;;;;;7.22;4.43;;;17.60;99.90;;;;;;4881429;29;20503;-81
2021/09/16 11:34:55;;;;;;;6.20;4.50;;;17.60;99.90;;;;;;4881677;29;20056;-81
2021/09/16 11:37:29;;;;;;;10.68;6.20;;;17.60;99.90;;;;;;4881507;29;20053;-80
2021/09/16 11:40:04;;;;;;;10.23;6.32;;;17.60;99.90;;;;;;4881510;29;20052;-80
2021/09/16 11:42:33;;;;;;;8.70;5.70;;;17.60;99.90;;;;;;4880611;29;21268;-80
2021/09/16 11:45:13;;;;;;;6.75;4.88;;;17.60;99.90;;;;;;4881442;29;20485;-81
2021/09/16 11:47:50;;;;;;;9.02;5.60;;;17.60;99.90;;;;;;4881411;29;20053;-81
2021/09/16 11:50:29;;;;;;;7.35;5.20;;;17.60;99.90;;;;;;4881142;29;20089;-81
2021/09/16 11:53:00;;;;;;;10.57;7.20;;;17.50;99.90;;;;;;4880930;29;20063;-81
2021/09/16 11:55:30;;;;;;;9.27;6.68;;;17.60;99.90;;;;;;4881549;29;20055;-80
2021/09/16 11:58:19;;;;;;;11.40;7.35;;;17.60;99.90;;;;;;4881127;29;20067;-81
2021/09/16 12:00:50;;;;;;;10.57;7.53;;;17.50;99.90;;;;;;4880714;29;20049;-81
2021/09/16 12:03:26;;;;;;;11.20;7.32;;;17.50;99.90;;;;;;4880411;29;20053;-81
2021/09/16 12:05:54;;;;;;;11.68;9.02;;;17.50;99.90;;;;;;4880995;29;20568;-80
2021/09/16 12:08:26;;;;;;;13.68;8.40;;;17.50;99.90;;;;;;4880979;29;20049;-81
2021/09/16 12:11:03;;;;;;;13.93;9.45;;;17.50;99.90;;;;;;4879435;29;20407;-80
2021/09/16 12:13:32;;;;;;;14.88;10.18;;;17.50;99.90;;;;;;4880207;29;20045;-80
2021/09/16 12:16:08;;;;;;;11.80;8.65;;;17.40;99.90;;;;;;4880440;29;20053;-80
2021/09/16 12:18:37;;;;;;;14.95;9.80;;;17.40;99.90;;;;;;4879127;29;20411;-80
2021/09/16 12:21:06;;;;;;;12.35;8.65;;;17.40;99.90;;;;;;4880659;29;20496;-80
2021/09/16 12:23:34;;;;;;;13.70;8.90;;;17.40;99.90;;;;;;4880155;29;20048;-80
2021/09/16 12:26:15;;;;;;;11.65;7.75;;;17.40;99.90;;;;;;4879943;29;20045;-80
2021/09/16 12:29:06;;;;;;;11.57;8.07;;;17.40;99.90;;;;;;4880538;29;20056;-80
2021/09/16 12:31:37;;;;;;;10.95;7.40;;;17.40;99.90;;;;;;4878099;29;20049;-80
2021/09/16 12:34:07;;;;;;;12.68;9.27;;;17.40;99.90;;;;;;4880274;29;20084;-80
2021/09/16 12:36:35;;;;;;;13.27;8.77;;;17.50;99.90;;;;;;4879985;29;20108;-80
2021/09/16 12:39:09;;;;;;;11.65;8.25;;;17.40;99.90;;;;;;4880374;29;20136;-80
2021/09/16 12:41:42;;;;;;;13.10;8.57;;;17.50;99.90;;;;;;4880625;29;20178;-80
2021/09/16 12:44:14;;;;;;;11.38;8.32;;;17.50;99.90;;;;;;4879677;29;20084;-80
2021/09/16 12:46:58;;;;;;;11.55;7.90;;;17.60;99.90;;;;;;4879940;29;20129;-80
2021/09/16 12:49:38;;;;;;;12.80;8.05;;;17.70;99.90;;;;;;4879678;29;20187;-80
2021/09/16 12:52:11;;;;;;;14.18;8.95;;;17.70;99.90;;;;;;4880195;29;20049;-80
2021/09/16 12:54:45;;;;;;;11.73;7.75;;;17.70;99.90;;;;;;4880228;29;20063;-81
2021/09/16 12:57:13;;;;;;;10.50;7.43;;;17.80;99.90;;;;;;4880252;29;20052;-80